Time;durP1;ratioP1;P1;durP2;ratioP2;P2;SDS_P1;SDS_P2;PMS_P1;PMS_P2;Temp;Humidity;BMP_temperature;BMP_pressure;BME280_temperature;BME280_humidity;BME280_pressure;Samples;Min_cycle;Max_cycle;Signal;HPM_P1;HPM_P2
2023/05/05 00:02:00;;;;;;;9.38;7.38;;;14.20;99.90;;;;;;5117627;27;20100;-62
2023/05/05 00:04:27;;;;;;;10.88;6.47;;;14.10;99.90;;;;;;5134953;27;20482;-64
2023/05/05 00:06:53;;;;;;;9.23;6.80;;;14.10;99.90;;;;;;5117032;27;20051;-63
2023/05/05 00:09:21;;;;;;;10.27;6.43;;;14.10;99.90;;;;;;5134882;27;20155;-63
2023/05/05 00:11:47;;;;;;;9.73;7.07;;;14.10;99.90;;;;;;5117015;27;20047;-63
2023/05/05 00:14:13;;;;;;;9.73;6.68;;;14.10;99.90;;;;;;5116727;27;20043;-63
2023/05/05 00:16:40;;;;;;;9.85;6.68;;;14.00;99.90;;;;;;5096752;28;20444;-62
2023/05/05 00:19:06;;;;;;;9.68;6.47;;;14.10;99.90;;;;;;5114009;28;20047;-63
2023/05/05 00:21:32;;;;;;;8.73;6.82;;;14.00;99.90;;;;;;5114991;28;20104;-62
2023/05/05 00:23:58;;;;;;;10.48;7.10;;;14.00;99.90;;;;;;5114408;28;20112;-63
2023/05/05 00:26:25;;;;;;;9.05;6.18;;;14.00;99.90;;;;;;5115473;27;20055;-62
2023/05/05 00:28:51;;;;;;;9.10;6.72;;;14.00;99.90;;;;;;5134277;27;20452;-63
2023/05/05 00:31:17;;;;;;;9.77;6.95;;;14.00;99.90;;;;;;5116421;27;20462;-64
2023/05/05 00:33:44;;;;;;;11.55;7.03;;;14.00;99.90;;;;;;5134766;27;20050;-63
2023/05/05 00:36:10;;;;;;;9.27;7.20;;;14.00;99.90;;;;;;5134347;27;20043;-63
2023/05/05 00:38:37;;;;;;;11.00;7.13;;;14.00;99.90;;;;;;5134415;27;20040;-63
2023/05/05 00:41:03;;;;;;;10.45;6.80;;;13.90;99.90;;;;;;5116886;27;20063;-62
2023/05/05 00:43:29;;;;;;;9.50;7.25;;;13.90;99.90;;;;;;5135151;27;20046;-64
2023/05/05 00:46:01;;;;;;;8.90;7.18;;;13.80;99.90;;;;;;5134766;27;20086;-63
2023/05/05 00:48:31;;;;;;;10.75;7.45;;;13.80;99.90;;;;;;5133742;27;20421;-63
2023/05/05 00:50:58;;;;;;;8.18;6.60;;;13.80;99.90;;;;;;5134191;27;20043;-63
2023/05/05 00:53:26;;;;;;;9.57;6.78;;;13.80;99.90;;;;;;5134435;27;20047;-62
2023/05/05 00:55:52;;;;;;;10.50;7.35;;;13.70;99.90;;;;;;5115999;27;20109;-62
2023/05/05 00:58:18;;;;;;;9.50;7.70;;;13.70;99.90;;;;;;5133736;27;20111;-63
2023/05/05 01:00:45;;;;;;;9.82;7.28;;;13.70;99.90;;;;;;5134223;27;20160;-62
2023/05/05 01:03:14;;;;;;;8.90;7.10;;;13.70;99.90;;;;;;5115849;27;20047;-62
2023/05/05 01:05:54;;;;;;;11.77;7.60;;;13.70;99.90;;;;;;5115769;27;20069;-63
2023/05/05 01:08:26;;;;;;;10.73;7.28;;;13.70;99.90;;;;;;5115676;27;20062;-62
2023/05/05 01:11:08;;;;;;;10.80;7.72;;;13.70;99.90;;;;;;5116071;27;20395;-62
2023/05/05 01:13:51;;;;;;;8.25;7.18;;;13.70;99.90;;;;;;5134332;27;20047;-62
2023/05/05 01:16:22;;;;;;;8.95;7.03;;;13.70;99.90;;;;;;5133806;27;20470;-62
2023/05/05 01:18:48;;;;;;;10.68;7.50;;;13.60;99.90;;;;;;5133458;27;20043;-62
2023/05/05 01:21:28;;;;;;;10.70;7.18;;;13.60;99.90;;;;;;5133649;27;20104;-62
2023/05/05 01:24:33;;;;;;;10.90;7.10;;;13.60;99.90;;;;;;5133910;27;20051;-62
2023/05/05 01:27:29;;;;;;;8.73;6.70;;;13.50;99.90;;;;;;5095161;28;20383;-62
2023/05/05 01:30:16;;;;;;;9.27;8.30;;;13.50;99.90;;;;;;5113314;28;20318;-62
2023/05/05 01:32:54;;;;;;;11.32;7.50;;;13.50;99.90;;;;;;5095680;28;20043;-63
2023/05/05 01:35:28;;;;;;;11.40;7.35;;;13.40;99.90;;;;;;5104228;27;20120;-63
2023/05/05 01:38:10;;;;;;;11.52;7.60;;;13.40;99.90;;;;;;5115199;27;20047;-61
2023/05/05 01:40:42;;;;;;;8.88;7.00;;;13.40;99.90;;;;;;5133642;27;20134;-63
2023/05/05 01:43:12;;;;;;;9.50;6.93;;;13.30;99.90;;;;;;5098299;27;20100;-64
2023/05/05 01:45:41;;;;;;;10.20;7.40;;;13.30;99.90;;;;;;5114852;27;20050;-63
2023/05/05 01:48:11;;;;;;;8.52;7.40;;;13.30;99.90;;;;;;5132989;27;20435;-63
2023/05/05 01:50:40;;;;;;;9.10;7.90;;;13.30;99.90;;;;;;5133252;27;20050;-63
2023/05/05 01:53:08;;;;;;;11.50;8.18;;;13.30;99.90;;;;;;5115258;28;20575;-62
2023/05/05 01:55:37;;;;;;;9.77;8.00;;;13.30;99.90;;;;;;5133385;27;20058;-63
2023/05/05 01:58:05;;;;;;;11.25;7.53;;;13.30;99.90;;;;;;5132506;27;20534;-63
2023/05/05 02:00:33;;;;;;;15.15;8.07;;;13.30;99.90;;;;;;5133284;28;20126;-62
2023/05/05 02:03:03;;;;;;;12.77;8.55;;;13.40;99.90;;;;;;5133531;28;20046;-62
2023/05/05 02:05:31;;;;;;;9.68;7.60;;;13.30;99.90;;;;;;5133339;28;20043;-63
2023/05/05 02:07:59;;;;;;;10.98;7.70;;;13.30;99.90;;;;;;5132830;28;20471;-63
2023/05/05 02:10:27;;;;;;;11.07;7.72;;;13.30;99.90;;;;;;5114897;28;20075;-63
2023/05/05 02:12:54;;;;;;;11.50;8.10;;;13.30;99.90;;;;;;5115245;28;20127;-61
2023/05/05 02:15:22;;;;;;;11.45;8.00;;;13.20;99.90;;;;;;5115069;28;20055;-62
2023/05/05 02:17:51;;;;;;;12.98;8.57;;;13.20;99.90;;;;;;5132749;28;20039;-62
2023/05/05 02:20:18;;;;;;;11.48;7.40;;;13.20;99.90;;;;;;5114573;28;20051;-63
2023/05/05 02:22:45;;;;;;;10.07;7.82;;;13.10;99.90;;;;;;5133060;28;20483;-61
2023/05/05 02:25:11;;;;;;;11.15;8.30;;;13.10;99.90;;;;;;5132626;28;20519;-63
2023/05/05 02:27:41;;;;;;;10.60;7.72;;;13.10;99.90;;;;;;5132543;28;20062;-63
2023/05/05 02:30:12;;;;;;;14.88;9.90;;;13.10;99.90;;;;;;5132853;28;20372;-62
2023/05/05 02:32:51;;;;;;;10.57;8.40;;;13.10;99.90;;;;;;5132899;28;20058;-63
2023/05/05 02:35:21;;;;;;;11.35;8.02;;;13.00;99.90;;;;;;5132884;28;20043;-63
2023/05/05 02:37:54;;;;;;;8.98;7.85;;;13.00;99.90;;;;;;5132607;28;20043;-63
2023/05/05 02:40:27;;;;;;;10.75;7.57;;;13.00;99.90;;;;;;5133105;28;20052;-62
2023/05/05 02:42:57;;;;;;;10.75;8.05;;;13.00;99.90;;;;;;5115107;28;20056;-62
2023/05/05 02:45:25;;;;;;;12.25;7.93;;;13.00;99.90;;;;;;5132846;28;20054;-61
2023/05/05 02:47:52;;;;;;;11.75;8.15;;;13.00;99.90;;;;;;5132475;28;20051;-62
2023/05/05 02:50:18;;;;;;;11.55;8.48;;;13.00;99.90;;;;;;5132624;28;20048;-62
2023/05/05 02:52:45;;;;;;;9.23;7.93;;;13.10;99.90;;;;;;5133014;28;20043;-62
2023/05/05 02:55:12;;;;;;;11.98;8.43;;;13.10;99.90;;;;;;5132674;28;20047;-62
2023/05/05 02:58:05;;;;;;;11.60;8.63;;;13.10;99.90;;;;;;5132784;28;20043;-63
2023/05/05 03:00:47;;;;;;;11.23;9.05;;;13.20;99.90;;;;;;5115191;28;20038;-63
2023/05/05 03:03:22;;;;;;;11.00;8.00;;;13.20;99.90;;;;;;5115080;28;20051;-62
2023/05/05 03:06:11;;;;;;;12.05;9.00;;;13.10;99.90;;;;;;5114195;28;20058;-63
2023/05/05 03:08:56;;;;;;;10.10;9.02;;;13.10;99.90;;;;;;5119220;28;20399;-63
2023/05/05 03:11:31;;;;;;;11.88;9.10;;;13.10;99.90;;;;;;5117545;27;20351;-63
2023/05/05 03:14:18;;;;;;;11.73;9.27;;;13.00;99.90;;;;;;5136353;27;20051;-63
2023/05/05 03:16:46;;;;;;;11.48;9.80;;;13.10;99.90;;;;;;5136268;27;20043;-63
2023/05/05 03:19:15;;;;;;;10.85;9.25;;;13.00;99.90;;;;;;5136172;27;20039;-63
2023/05/05 03:21:42;;;;;;;12.50;8.48;;;13.00;99.90;;;;;;5118377;27;20051;-62
2023/05/05 03:24:17;;;;;;;15.95;9.88;;;13.10;99.90;;;;;;5136394;27;20047;-63
2023/05/05 03:26:45;;;;;;;14.30;9.60;;;13.10;99.90;;;;;;5114057;28;20051;-62
2023/05/05 03:29:12;;;;;;;12.00;10.02;;;13.10;99.90;;;;;;5115272;28;20489;-63
2023/05/05 03:31:38;;;;;;;13.32;10.35;;;13.00;99.90;;;;;;5115688;28;20490;-62
2023/05/05 03:34:05;;;;;;;10.82;9.15;;;13.10;99.90;;;;;;5114445;28;20377;-61
2023/05/05 03:36:31;;;;;;;14.10;9.98;;;13.00;99.90;;;;;;5115125;28;20047;-62
2023/05/05 03:38:57;;;;;;;13.15;10.40;;;13.00;99.90;;;;;;5097177;28;20478;-63
2023/05/05 03:41:24;;;;;;;14.73;10.30;;;12.90;99.90;;;;;;5115456;28;20051;-61
2023/05/05 03:43:51;;;;;;;12.18;9.82;;;12.90;99.90;;;;;;5080350;28;20051;-62
2023/05/05 03:46:17;;;;;;;14.10;9.35;;;13.00;99.90;;;;;;5115263;28;20047;-63
2023/05/05 03:48:43;;;;;;;14.90;10.75;;;13.00;99.90;;;;;;5114689;28;20048;-63
2023/05/05 03:51:11;;;;;;;12.90;10.68;;;12.90;99.90;;;;;;5115203;28;20039;-62
2023/05/05 03:53:37;;;;;;;14.73;11.18;;;12.80;99.90;;;;;;5114781;28;20368;-63
2023/05/05 03:56:04;;;;;;;16.38;11.52;;;12.70;99.90;;;;;;5103057;28;20332;-63
2023/05/05 03:58:30;;;;;;;15.27;11.65;;;12.60;99.90;;;;;;5096918;28;20406;-61
2023/05/05 04:00:57;;;;;;;14.25;10.35;;;12.50;99.90;;;;;;5115145;28;20055;-62
2023/05/05 04:03:23;;;;;;;12.52;10.52;;;12.50;99.90;;;;;;5114690;28;20056;-63
2023/05/05 04:05:49;;;;;;;14.63;11.60;;;12.50;99.90;;;;;;5108388;27;20070;-64
2023/05/05 04:08:16;;;;;;;14.63;11.80;;;12.50;99.90;;;;;;5134994;27;20051;-63
2023/05/05 04:10:42;;;;;;;15.93;12.85;;;12.50;99.90;;;;;;5117165;27;20043;-62
2023/05/05 04:13:08;;;;;;;13.82;11.23;;;12.40;99.90;;;;;;5135176;27;20061;-62
2023/05/05 04:15:34;;;;;;;16.00;11.73;;;12.40;99.90;;;;;;5125164;27;20475;-63
2023/05/05 04:18:01;;;;;;;12.75;10.77;;;12.30;99.90;;;;;;5096507;28;20047;-63
2023/05/05 04:20:27;;;;;;;14.95;11.90;;;12.30;99.90;;;;;;5114309;28;20055;-63
2023/05/05 04:22:53;;;;;;;14.07;10.88;;;12.30;99.90;;;;;;5114199;28;20120;-63
2023/05/05 04:25:19;;;;;;;16.65;10.63;;;12.30;99.90;;;;;;5100342;28;20495;-63
2023/05/05 04:27:45;;;;;;;14.70;11.00;;;12.30;99.90;;;;;;5113789;28;20063;-63
2023/05/05 04:30:12;;;;;;;14.80;11.35;;;12.40;99.90;;;;;;5113541;28;20478;-64
2023/05/05 04:32:38;;;;;;;13.73;10.90;;;12.30;99.90;;;;;;5113311;28;20108;-64
2023/05/05 04:35:06;;;;;;;15.40;11.57;;;12.30;99.90;;;;;;5114641;28;20040;-63
2023/05/05 04:37:33;;;;;;;16.27;11.30;;;12.40;99.90;;;;;;5095755;28;20047;-62
2023/05/05 04:39:59;;;;;;;13.13;10.80;;;12.30;99.90;;;;;;5114222;28;20047;-64
2023/05/05 04:42:25;;;;;;;14.70;11.18;;;12.40;99.90;;;;;;5096134;28;20477;-62
2023/05/05 04:44:52;;;;;;;15.27;11.05;;;12.40;99.90;;;;;;5081803;27;20115;-62
2023/05/05 04:47:18;;;;;;;12.65;11.20;;;12.40;99.90;;;;;;5116112;27;20051;-64
2023/05/05 04:49:44;;;;;;;15.30;12.38;;;12.40;99.90;;;;;;5116342;27;20348;-63
2023/05/05 04:52:13;;;;;;;16.50;13.02;;;12.50;99.90;;;;;;5116001;27;20051;-64
2023/05/05 04:54:40;;;;;;;13.77;10.90;;;12.50;99.90;;;;;;5114553;27;20054;-64
2023/05/05 04:57:06;;;;;;;15.60;11.65;;;12.50;99.90;;;;;;5095348;28;20475;-63
2023/05/05 04:59:33;;;;;;;15.45;11.88;;;12.60;99.90;;;;;;5114275;28;20058;-63
2023/05/05 05:02:00;;;;;;;15.80;11.98;;;12.80;99.90;;;;;;5114095;28;20043;-64
2023/05/05 05:04:26;;;;;;;14.10;11.98;;;13.20;99.90;;;;;;5113564;28;20059;-63
2023/05/05 05:06:52;;;;;;;14.52;12.95;;;13.90;99.90;;;;;;5115422;27;20047;-64
2023/05/05 05:09:18;;;;;;;16.10;11.30;;;14.60;99.90;;;;;;5133535;27;20045;-62
2023/05/05 05:11:45;;;;;;;13.90;12.45;;;15.20;99.90;;;;;;5134286;27;20100;-63
2023/05/05 05:14:11;;;;;;;15.77;11.60;;;15.70;99.90;;;;;;5116524;27;20455;-64
2023/05/05 05:16:37;;;;;;;14.70;11.90;;;16.00;99.90;;;;;;5097756;28;20073;-63
2023/05/05 05:19:03;;;;;;;13.50;12.10;;;15.90;99.90;;;;;;5113423;28;20043;-64
2023/05/05 05:21:30;;;;;;;12.73;11.38;;;16.00;99.90;;;;;;5113368;28;20116;-64
2023/05/05 05:23:56;;;;;;;12.38;11.07;;;16.50;99.90;;;;;;5113362;28;20063;-64
2023/05/05 05:26:22;;;;;;;13.75;11.07;;;16.70;99.90;;;;;;5112747;28;20059;-64
2023/05/05 05:28:49;;;;;;;16.48;12.27;;;16.80;99.90;;;;;;5112020;28;20047;-63
2023/05/05 05:31:15;;;;;;;15.13;11.93;;;16.80;99.90;;;;;;5113348;28;20051;-63
2023/05/05 05:33:41;;;;;;;15.57;11.80;;;16.50;99.90;;;;;;5111968;28;20468;-63
2023/05/05 05:36:08;;;;;;;14.18;11.75;;;16.40;99.90;;;;;;5112892;28;20048;-63
2023/05/05 05:38:34;;;;;;;12.55;11.20;;;16.10;99.90;;;;;;5112505;28;20467;-63
2023/05/05 05:41:06;;;;;;;13.10;11.80;;;15.80;99.90;;;;;;5113003;28;20495;-63
2023/05/05 05:43:32;;;;;;;15.82;12.35;;;15.90;99.90;;;;;;5113380;28;20052;-63
2023/05/05 05:45:58;;;;;;;15.55;12.35;;;16.20;99.90;;;;;;5095949;28;20374;-62
2023/05/05 05:48:27;;;;;;;14.57;11.30;;;16.60;99.90;;;;;;5112504;28;20056;-63
2023/05/05 05:50:54;;;;;;;14.73;12.27;;;17.50;99.90;;;;;;5112844;28;20039;-62
2023/05/05 05:53:20;;;;;;;12.82;11.23;;;18.50;99.90;;;;;;5112902;28;20044;-64
2023/05/05 05:55:47;;;;;;;13.02;11.25;;;19.30;99.90;;;;;;5104274;28;20455;-64
2023/05/05 05:58:15;;;;;;;12.63;10.90;;;19.30;99.90;;;;;;5112538;28;20096;-63
2023/05/05 06:00:42;;;;;;;15.07;11.63;;;19.80;99.90;;;;;;5113026;28;20047;-63
2023/05/05 06:03:08;;;;;;;14.07;11.88;;;20.20;99.90;;;;;;5113128;28;20097;-63
2023/05/05 06:05:34;;;;;;;14.75;12.23;;;20.70;99.90;;;;;;5112886;28;20097;-63
2023/05/05 06:08:00;;;;;;;13.80;11.18;;;21.30;99.90;;;;;;5112197;28;20043;-63
2023/05/05 06:10:27;;;;;;;16.20;12.50;;;21.60;99.90;;;;;;5116045;28;20047;-62
2023/05/05 06:12:53;;;;;;;15.55;13.18;;;21.90;99.90;;;;;;5122580;28;20051;-64
2023/05/05 06:15:19;;;;;;;20.98;13.10;;;22.10;99.90;;;;;;5096720;28;20104;-64
2023/05/05 06:17:46;;;;;;;20.15;14.45;;;22.10;99.90;;;;;;5111590;28;20361;-64
2023/05/05 06:20:15;;;;;;;23.10;15.60;;;22.10;99.90;;;;;;5119093;28;20054;-63
2023/05/05 06:22:41;;;;;;;28.75;16.95;;;21.90;99.90;;;;;;5112554;28;20059;-64
2023/05/05 06:25:08;;;;;;;28.27;17.50;;;22.00;99.90;;;;;;5121864;28;20378;-63
2023/05/05 06:27:34;;;;;;;17.67;13.57;;;22.10;99.90;;;;;;5103820;28;20047;-63
2023/05/05 06:30:00;;;;;;;20.40;13.18;;;22.30;99.90;;;;;;5120654;28;20122;-64
2023/05/05 06:32:26;;;;;;;18.52;14.65;;;22.10;99.90;;;;;;5109108;28;20458;-63
2023/05/05 06:34:53;;;;;;;18.75;14.35;;;22.30;99.90;;;;;;5107054;28;20051;-63
2023/05/05 06:37:19;;;;;;;22.30;15.00;;;22.30;99.90;;;;;;5094519;28;20059;-62
2023/05/05 06:39:46;;;;;;;18.10;14.07;;;22.10;99.90;;;;;;5112703;28;20520;-64
2023/05/05 06:42:12;;;;;;;17.90;13.77;;;21.90;99.90;;;;;;5094169;28;20056;-64
2023/05/05 06:44:38;;;;;;;18.30;13.43;;;21.80;99.90;;;;;;5094377;28;20051;-63
2023/05/05 06:47:05;;;;;;;17.30;14.23;;;21.90;99.90;;;;;;5116041;28;20073;-64
2023/05/05 06:49:31;;;;;;;16.58;13.27;;;22.10;99.90;;;;;;5098184;28;20143;-63
2023/05/05 06:51:57;;;;;;;18.90;12.88;;;22.30;99.90;;;;;;5116282;28;20039;-63
2023/05/05 06:54:23;;;;;;;16.02;13.50;;;22.10;99.90;;;;;;5116272;28;20051;-64
2023/05/05 06:56:50;;;;;;;17.20;13.77;;;22.20;99.90;;;;;;5115577;28;20054;-63
2023/05/05 06:59:16;;;;;;;16.90;13.88;;;22.00;99.90;;;;;;5116283;28;20052;-63
2023/05/05 07:01:42;;;;;;;16.33;13.98;;;21.90;99.90;;;;;;5098075;28;20070;-64
2023/05/05 07:04:10;;;;;;;16.83;14.15;;;21.70;99.90;;;;;;5097627;28;20129;-63
2023/05/05 07:06:36;;;;;;;19.05;16.15;;;21.70;99.90;;;;;;5115508;28;20413;-64
2023/05/05 07:09:03;;;;;;;22.25;17.02;;;21.60;99.90;;;;;;5080775;28;20600;-63
2023/05/05 07:11:29;;;;;;;20.98;15.30;;;21.30;99.90;;;;;;5097993;28;20047;-63
2023/05/05 07:13:55;;;;;;;19.38;16.70;;;21.40;99.90;;;;;;5097750;28;20070;-64
2023/05/05 07:16:23;;;;;;;19.85;15.63;;;21.10;99.90;;;;;;5115749;28;20048;-63
2023/05/05 07:18:50;;;;;;;19.20;15.15;;;21.00;99.90;;;;;;5115602;28;20040;-63
2023/05/05 07:21:23;;;;;;;19.30;15.98;;;21.00;99.90;;;;;;5115716;28;20055;-63
2023/05/05 07:23:50;;;;;;;21.20;17.73;;;20.60;99.90;;;;;;5115828;28;20472;-63
2023/05/05 07:26:16;;;;;;;19.58;15.52;;;20.20;99.90;;;;;;5115363;28;20121;-63
2023/05/05 07:28:42;;;;;;;20.42;15.38;;;19.80;99.90;;;;;;5115103;28;20055;-65
2023/05/05 07:31:09;;;;;;;18.52;14.07;;;19.70;99.90;;;;;;5115807;28;20062;-63
2023/05/05 07:33:36;;;;;;;19.00;14.35;;;19.50;99.90;;;;;;5115670;28;20493;-63
2023/05/05 07:36:03;;;;;;;19.67;15.13;;;19.40;99.90;;;;;;5115378;28;20067;-64
2023/05/05 07:38:29;;;;;;;17.98;14.57;;;19.40;99.90;;;;;;5115442;28;20050;-63
2023/05/05 07:40:55;;;;;;;17.42;14.07;;;19.40;99.90;;;;;;5115253;28;20112;-63
2023/05/05 07:43:22;;;;;;;18.92;14.35;;;19.50;99.90;;;;;;5115659;28;20057;-64
2023/05/05 07:45:48;;;;;;;18.05;14.40;;;19.40;99.90;;;;;;5115355;28;20052;-63
2023/05/05 07:48:14;;;;;;;18.40;14.02;;;19.50;99.90;;;;;;5096753;28;20468;-65
2023/05/05 07:50:40;;;;;;;17.75;13.40;;;19.30;99.90;;;;;;5097099;28;20058;-63
2023/05/05 07:53:07;;;;;;;17.10;13.15;;;19.40;99.90;;;;;;5115400;28;20054;-64
2023/05/05 07:55:33;;;;;;;19.02;13.93;;;19.50;99.90;;;;;;5115128;28;20054;-64
2023/05/05 07:57:59;;;;;;;18.38;13.75;;;19.50;99.90;;;;;;5113017;28;20044;-63
2023/05/05 08:00:25;;;;;;;17.13;12.88;;;19.40;99.90;;;;;;5114867;28;20422;-64
2023/05/05 08:02:52;;;;;;;15.77;12.90;;;19.40;99.90;;;;;;5115236;28;20074;-63
2023/05/05 08:05:18;;;;;;;18.10;13.80;;;19.30;99.90;;;;;;5114720;28;20047;-63
2023/05/05 08:07:58;;;;;;;17.42;11.88;;;19.30;99.90;;;;;;5097001;28;20067;-64
2023/05/05 08:10:25;;;;;;;16.90;12.05;;;19.40;99.90;;;;;;5114718;28;20359;-64
2023/05/05 08:12:53;;;;;;;16.08;11.70;;;19.30;99.90;;;;;;5114413;28;20047;-63
2023/05/05 08:15:19;;;;;;;18.50;11.85;;;19.40;99.90;;;;;;5114396;28;20052;-64
2023/05/05 08:17:47;;;;;;;14.88;11.07;;;19.50;99.90;;;;;;5114435;28;20472;-64
2023/05/05 08:20:15;;;;;;;14.60;11.00;;;19.40;99.90;;;;;;5114644;28;20044;-64
2023/05/05 08:22:41;;;;;;;15.60;11.25;;;19.40;99.90;;;;;;5115065;28;20052;-63
2023/05/05 08:25:11;;;;;;;10.73;8.20;;;19.50;99.90;;;;;;5114456;28;20058;-64
2023/05/05 08:27:39;;;;;;;11.48;7.72;;;19.50;99.90;;;;;;5114065;28;20068;-64
2023/05/05 08:30:06;;;;;;;10.98;7.55;;;19.60;99.90;;;;;;5114515;28;20039;-63
2023/05/05 08:32:32;;;;;;;9.38;7.00;;;19.50;99.90;;;;;;5114550;28;20058;-64
2023/05/05 08:35:02;;;;;;;9.32;7.72;;;19.50;99.90;;;;;;5114024;28;20058;-64
2023/05/05 08:37:28;;;;;;;10.63;8.25;;;19.30;99.90;;;;;;5096213;28;20463;-64
2023/05/05 08:39:56;;;;;;;10.40;7.70;;;19.30;99.90;;;;;;5079423;28;20656;-64
2023/05/05 08:42:23;;;;;;;11.38;7.22;;;19.40;99.90;;;;;;5079510;28;20268;-64
2023/05/05 08:44:50;;;;;;;10.20;6.45;;;19.40;99.90;;;;;;5096173;28;20055;-64
2023/05/05 08:47:16;;;;;;;9.93;6.40;;;19.40;99.90;;;;;;5113823;28;20108;-64
2023/05/05 08:49:45;;;;;;;8.13;5.07;;;19.40;99.90;;;;;;5114491;28;20056;-64
2023/05/05 08:52:19;;;;;;;9.48;6.32;;;19.50;99.90;;;;;;5114243;28;20043;-64
2023/05/05 08:54:59;;;;;;;7.82;5.60;;;19.50;99.90;;;;;;5113976;28;20040;-64
2023/05/05 08:57:39;;;;;;;9.15;5.65;;;19.60;99.90;;;;;;5093142;28;20358;-64
2023/05/05 09:00:08;;;;;;;9.95;6.47;;;19.70;99.90;;;;;;5093680;28;20067;-64
2023/05/05 09:02:35;;;;;;;11.00;6.70;;;19.70;99.90;;;;;;5075392;28;20055;-64
2023/05/05 09:05:04;;;;;;;11.82;7.15;;;19.70;99.90;;;;;;5078698;28;20043;-64
2023/05/05 09:07:31;;;;;;;9.27;6.63;;;19.60;99.90;;;;;;5113281;28;20108;-64
2023/05/05 09:09:59;;;;;;;12.88;8.00;;;19.70;99.90;;;;;;5079084;28;20089;-63
2023/05/05 09:12:29;;;;;;;14.30;8.95;;;19.70;99.90;;;;;;5113643;28;20301;-64
2023/05/05 09:14:56;;;;;;;11.93;8.73;;;19.80;99.90;;;;;;5094736;28;20116;-64
2023/05/05 09:17:24;;;;;;;11.15;7.45;;;19.80;99.90;;;;;;5094571;28;20050;-63
2023/05/05 09:20:10;;;;;;;11.70;7.88;;;19.80;99.90;;;;;;5112647;28;20108;-64
2023/05/05 09:22:45;;;;;;;12.85;7.47;;;19.80;99.90;;;;;;5092837;28;20052;-64
2023/05/05 09:25:13;;;;;;;9.90;6.80;;;19.80;99.90;;;;;;5097405;28;20104;-64
2023/05/05 09:27:47;;;;;;;9.02;6.65;;;19.80;99.90;;;;;;5112625;28;20067;-64
2023/05/05 09:30:16;;;;;;;9.68;6.28;;;19.80;99.90;;;;;;5113507;28;20047;-64
2023/05/05 09:32:50;;;;;;;10.02;7.15;;;19.80;99.90;;;;;;5112094;28;20093;-65
2023/05/05 09:35:18;;;;;;;9.05;6.40;;;19.80;99.90;;;;;;5113655;27;20032;-65
2023/05/05 09:37:44;;;;;;;13.45;8.30;;;19.90;99.90;;;;;;5112776;28;20051;-64
2023/05/05 09:40:13;;;;;;;11.90;8.68;;;20.00;99.90;;;;;;5113269;28;20039;-64
2023/05/05 09:42:40;;;;;;;10.70;7.90;;;20.10;99.90;;;;;;5113178;28;20138;-64
2023/05/05 09:45:19;;;;;;;18.77;10.70;;;20.20;99.90;;;;;;5112679;28;20044;-65
2023/05/05 09:47:46;;;;;;;12.40;10.07;;;20.30;99.90;;;;;;5103970;28;20378;-65
2023/05/05 09:50:22;;;;;;;14.63;8.70;;;20.40;99.90;;;;;;5095040;28;20047;-65
2023/05/05 09:52:56;;;;;;;8.43;6.00;;;20.30;99.90;;;;;;5094917;28;20387;-64
2023/05/05 09:55:23;;;;;;;10.40;6.55;;;20.30;99.90;;;;;;5094918;28;20047;-64
2023/05/05 09:57:50;;;;;;;9.57;6.95;;;20.20;99.90;;;;;;5111118;28;20056;-64
2023/05/05 10:00:16;;;;;;;9.15;7.43;;;20.30;99.90;;;;;;5107049;28;20386;-64
2023/05/05 10:02:43;;;;;;;9.13;6.10;;;20.30;99.90;;;;;;5095237;28;20082;-63
2023/05/05 10:05:15;;;;;;;10.55;6.05;;;20.30;99.90;;;;;;5112183;28;20046;-64
2023/05/05 10:07:43;;;;;;;10.68;5.13;;;20.30;99.90;;;;;;5111338;28;20479;-64
2023/05/05 10:10:15;;;;;;;11.75;5.88;;;20.40;99.90;;;;;;5111782;28;20043;-64
2023/05/05 10:12:41;;;;;;;9.20;6.93;;;20.70;99.90;;;;;;5093331;28;20047;-63
2023/05/05 10:15:10;;;;;;;8.77;6.22;;;20.80;99.90;;;;;;5094323;28;20039;-64
2023/05/05 10:17:48;;;;;;;7.03;5.65;;;21.00;99.90;;;;;;5112447;28;20039;-64
2023/05/05 10:20:15;;;;;;;6.50;4.90;;;21.00;99.90;;;;;;5096220;28;20054;-63
2023/05/05 10:22:51;;;;;;;9.15;5.07;;;21.00;99.90;;;;;;5098959;28;20509;-63
2023/05/05 10:25:27;;;;;;;8.80;5.25;;;21.10;99.90;;;;;;5116810;28;20047;-64
2023/05/05 10:27:58;;;;;;;10.57;5.95;;;20.90;99.90;;;;;;5098240;28;20056;-63
2023/05/05 10:30:28;;;;;;;9.40;5.55;;;20.90;99.90;;;;;;5098751;28;20054;-64
2023/05/05 10:33:16;;;;;;;8.00;5.53;;;20.80;99.90;;;;;;5098710;28;20120;-63
2023/05/05 10:35:46;;;;;;;6.85;4.63;;;20.90;99.90;;;;;;5116457;28;20035;-63
2023/05/05 10:38:12;;;;;;;11.82;5.85;;;20.90;99.90;;;;;;5115846;28;20044;-63
2023/05/05 10:40:44;;;;;;;8.43;5.45;;;20.90;99.90;;;;;;5098019;28;20472;-63
2023/05/05 10:43:12;;;;;;;9.40;4.80;;;21.00;99.90;;;;;;5095984;28;20100;-63
2023/05/05 10:45:40;;;;;;;7.47;4.50;;;20.90;99.90;;;;;;5097800;28;20059;-63
2023/05/05 10:48:19;;;;;;;7.85;4.60;;;21.00;99.90;;;;;;5094720;28;20047;-64
2023/05/05 10:51:15;;;;;;;7.88;3.60;;;20.90;99.90;;;;;;5097288;28;20066;-64
2023/05/05 10:54:01;;;;;;;6.10;3.50;;;21.10;99.90;;;;;;5094501;28;20363;-63
2023/05/05 10:56:33;;;;;;;6.00;3.63;;;21.00;99.90;;;;;;5094762;28;20250;-63
2023/05/05 10:59:00;;;;;;;13.18;4.10;;;20.90;99.90;;;;;;5080285;28;20062;-63
2023/05/05 11:01:35;;;;;;;5.68;3.55;;;20.90;99.90;;;;;;5112772;28;20489;-64
2023/05/05 11:04:22;;;;;;;6.85;4.25;;;20.80;99.90;;;;;;5115847;28;20047;-64
2023/05/05 11:07:07;;;;;;;7.43;3.55;;;20.70;99.90;;;;;;5094146;28;20050;-64
2023/05/05 11:09:41;;;;;;;8.25;2.38;;;20.70;99.90;;;;;;5113451;28;20433;-64
2023/05/05 11:12:08;;;;;;;3.33;1.52;;;20.80;99.90;;;;;;5097743;28;20635;-64
2023/05/05 11:14:34;;;;;;;2.33;1.42;;;20.70;99.90;;;;;;5097679;28;20468;-63
2023/05/05 11:17:00;;;;;;;5.03;1.65;;;20.80;99.90;;;;;;5097428;28;20084;-63
2023/05/05 11:19:42;;;;;;;11.10;2.85;;;20.80;99.90;;;;;;5097733;28;20125;-64
2023/05/05 11:22:09;;;;;;;6.00;2.50;;;20.80;99.90;;;;;;5097688;28;20062;-64
2023/05/05 11:24:35;;;;;;;4.53;2.95;;;20.90;99.90;;;;;;5115746;28;20048;-64
2023/05/05 11:27:02;;;;;;;5.63;3.17;;;20.90;99.90;;;;;;5114819;28;20056;-63
2023/05/05 11:30:02;;;;;;;6.10;2.97;;;20.90;99.90;;;;;;5081023;28;20076;-64
2023/05/05 11:32:29;;;;;;;6.03;3.72;;;20.90;99.90;;;;;;5115724;28;20055;-64
2023/05/05 11:34:55;;;;;;;6.20;3.88;;;20.90;99.90;;;;;;5114890;28;20043;-64
2023/05/05 11:37:23;;;;;;;7.55;4.50;;;20.90;99.90;;;;;;5097248;28;20084;-64
2023/05/05 11:39:59;;;;;;;6.88;4.30;;;21.00;99.90;;;;;;5115219;28;20503;-63
2023/05/05 11:42:26;;;;;;;7.18;4.35;;;20.80;99.90;;;;;;5097445;28;20051;-63
2023/05/05 11:44:53;;;;;;;9.95;6.40;;;20.80;99.90;;;;;;5096929;28;20055;-64
2023/05/05 11:47:19;;;;;;;9.68;5.93;;;20.60;99.90;;;;;;5096586;28;20051;-62
2023/05/05 11:49:46;;;;;;;11.05;6.00;;;20.50;99.90;;;;;;5114838;28;20649;-63
2023/05/05 11:52:13;;;;;;;10.48;6.28;;;20.20;99.90;;;;;;5097373;28;20048;-63
2023/05/05 11:54:47;;;;;;;10.25;5.60;;;20.00;99.90;;;;;;5115063;28;20047;-64
2023/05/05 11:57:20;;;;;;;9.77;6.03;;;19.80;99.90;;;;;;5114314;28;20347;-63
2023/05/05 12:00:02;;;;;;;8.50;5.82;;;19.40;99.90;;;;;;5115225;28;20052;-63
2023/05/05 12:02:30;;;;;;;8.85;5.70;;;19.00;99.90;;;;;;5115261;28;20061;-64
2023/05/05 12:04:58;;;;;;;6.93;5.38;;;18.70;99.90;;;;;;5114376;28;20525;-63
2023/05/05 12:07:27;;;;;;;8.18;5.30;;;18.30;99.90;;;;;;5094309;28;20054;-64
2023/05/05 12:09:54;;;;;;;6.95;3.25;;;18.00;99.90;;;;;;5076461;28;20441;-63
2023/05/05 12:12:31;;;;;;;4.85;2.55;;;17.60;99.90;;;;;;5094619;28;20044;-64
2023/05/05 12:14:58;;;;;;;6.13;3.30;;;17.10;99.90;;;;;;5114248;28;20047;-62
2023/05/05 12:17:24;;;;;;;8.65;3.47;;;16.70;99.90;;;;;;5092996;28;20035;-62
2023/05/05 12:19:54;;;;;;;8.85;2.95;;;16.50;99.90;;;;;;5114069;28;20043;-63
2023/05/05 12:22:23;;;;;;;8.85;3.97;;;16.10;99.90;;;;;;5114274;28;20367;-63
2023/05/05 12:25:01;;;;;;;7.20;3.63;;;16.00;99.90;;;;;;5114316;28;20051;-62
2023/05/05 12:27:28;;;;;;;6.10;3.58;;;15.90;99.90;;;;;;5093223;28;20294;-63
2023/05/05 12:29:56;;;;;;;6.22;3.20;;;15.60;99.90;;;;;;5096014;28;20093;-63
2023/05/05 12:32:26;;;;;;;5.82;2.70;;;15.50;99.90;;;;;;5095864;28;20047;-63
2023/05/05 12:34:56;;;;;;;5.78;2.72;;;15.60;99.90;;;;;;5095544;28;20326;-63
2023/05/05 12:37:24;;;;;;;4.45;2.40;;;15.40;99.90;;;;;;5095141;28;20352;-63
2023/05/05 12:39:51;;;;;;;4.93;1.70;;;15.50;99.90;;;;;;5095789;27;20522;-63
2023/05/05 12:42:18;;;;;;;4.72;1.65;;;15.50;99.90;;;;;;5103889;27;20063;-63
2023/05/05 12:44:45;;;;;;;4.88;1.50;;;15.40;99.90;;;;;;5103693;27;20043;-63
2023/05/05 12:47:12;;;;;;;4.82;1.67;;;15.50;99.90;;;;;;5113351;28;20105;-63